DAUU

Ain el Beida Airport

Airport
ICAO code
DAUU
IATA Code
OGX
Summary
ICAO Region
AFI
ICAO Territory
Location

, Ouargla

Serving
Ouargla
Elevation
492 ft
Coordinates
31° 55' 2" N , 5° 24' 46" E
Metar
DAUU 271000Z 35011KT 3000 SA NSC 16/M00 Q1009

Runways

Designator Length Width Surface Rops
2/20 3000 45 ASP No/No
18/36 3100 45 ASP No/No

Airport map

Aerial View

SKYbrary Partners:

Safety knowledge contributed by: